sensor_id;sensor_type;location;lat;lon;timestamp;P1;durP1;ratioP1;P2;durP2;ratioP2
15482;SDS011;7843;50.330;7.312;2022-10-16T00:01:07;2.72;;;1.13;;
15482;SDS011;7843;50.330;7.312;2022-10-16T00:03:35;1.23;;;1.00;;
15482;SDS011;7843;50.330;7.312;2022-10-16T00:06:01;1.80;;;1.20;;
15482;SDS011;7843;50.330;7.312;2022-10-16T00:08:29;6.65;;;1.40;;
15482;SDS011;7843;50.330;7.312;2022-10-16T00:11:03;1.63;;;1.20;;
15482;SDS011;7843;50.330;7.312;2022-10-16T00:13:35;1.40;;;1.30;;
15482;SDS011;7843;50.330;7.312;2022-10-16T00:16:04;1.40;;;1.27;;
15482;SDS011;7843;50.330;7.312;2022-10-16T00:18:32;2.20;;;1.15;;
15482;SDS011;7843;50.330;7.312;2022-10-16T00:21:09;1.20;;;1.10;;
15482;SDS011;7843;50.330;7.312;2022-10-16T00:23:40;3.05;;;1.63;;
15482;SDS011;7843;50.330;7.312;2022-10-16T00:26:08;2.40;;;1.75;;
15482;SDS011;7843;50.330;7.312;2022-10-16T00:28:38;1.48;;;1.30;;
15482;SDS011;7843;50.330;7.312;2022-10-16T00:31:05;1.60;;;1.40;;
15482;SDS011;7843;50.330;7.312;2022-10-16T00:33:34;1.80;;;1.30;;
15482;SDS011;7843;50.330;7.312;2022-10-16T00:36:02;3.50;;;1.48;;
15482;SDS011;7843;50.330;7.312;2022-10-16T00:38:31;3.00;;;1.60;;
15482;SDS011;7843;50.330;7.312;2022-10-16T00:40:58;3.17;;;1.88;;
15482;SDS011;7843;50.330;7.312;2022-10-16T00:46:20;1.77;;;1.20;;
15482;SDS011;7843;50.330;7.312;2022-10-16T00:48:54;1.75;;;1.10;;
15482;SDS011;7843;50.330;7.312;2022-10-16T00:51:33;2.05;;;1.30;;
15482;SDS011;7843;50.330;7.312;2022-10-16T00:54:02;1.02;;;0.88;;
15482;SDS011;7843;50.330;7.312;2022-10-16T00:56:33;1.30;;;1.10;;
15482;SDS011;7843;50.330;7.312;2022-10-16T00:59:01;1.75;;;0.90;;
15482;SDS011;7843;50.330;7.312;2022-10-16T01:01:32;1.10;;;1.00;;
15482;SDS011;7843;50.330;7.312;2022-10-16T01:03:59;2.30;;;0.93;;
15482;SDS011;7843;50.330;7.312;2022-10-16T01:06:35;2.22;;;0.95;;
15482;SDS011;7843;50.330;7.312;2022-10-16T01:09:23;2.05;;;1.00;;
15482;SDS011;7843;50.330;7.312;2022-10-16T01:12:07;3.25;;;1.30;;
15482;SDS011;7843;50.330;7.312;2022-10-16T01:14:53;1.83;;;0.95;;
15482;SDS011;7843;50.330;7.312;2022-10-16T01:17:51;1.80;;;1.00;;
15482;SDS011;7843;50.330;7.312;2022-10-16T01:20:33;1.27;;;1.10;;
15482;SDS011;7843;50.330;7.312;2022-10-16T01:23:06;4.38;;;1.50;;
15482;SDS011;7843;50.330;7.312;2022-10-16T01:28:55;5.50;;;2.05;;
15482;SDS011;7843;50.330;7.312;2022-10-16T01:31:27;4.38;;;2.20;;
15482;SDS011;7843;50.330;7.312;2022-10-16T01:34:05;4.78;;;2.65;;
15482;SDS011;7843;50.330;7.312;2022-10-16T01:36:57;3.03;;;1.42;;
15482;SDS011;7843;50.330;7.312;2022-10-16T01:39:31;3.00;;;1.52;;
15482;SDS011;7843;50.330;7.312;2022-10-16T01:42:04;1.33;;;1.20;;
15482;SDS011;7843;50.330;7.312;2022-10-16T01:44:35;3.20;;;1.10;;
15482;SDS011;7843;50.330;7.312;2022-10-16T01:47:03;2.40;;;1.25;;
15482;SDS011;7843;50.330;7.312;2022-10-16T01:49:32;1.33;;;0.90;;
15482;SDS011;7843;50.330;7.312;2022-10-16T01:52:02;3.95;;;1.38;;
15482;SDS011;7843;50.330;7.312;2022-10-16T01:54:34;3.17;;;1.17;;
15482;SDS011;7843;50.330;7.312;2022-10-16T01:57:03;1.15;;;0.93;;
15482;SDS011;7843;50.330;7.312;2022-10-16T01:59:32;1.98;;;1.10;;
15482;SDS011;7843;50.330;7.312;2022-10-16T02:02:05;1.50;;;1.20;;
15482;SDS011;7843;50.330;7.312;2022-10-16T02:04:37;1.33;;;1.08;;
15482;SDS011;7843;50.330;7.312;2022-10-16T02:07:13;1.80;;;1.30;;
15482;SDS011;7843;50.330;7.312;2022-10-16T02:09:40;2.45;;;1.17;;
15482;SDS011;7843;50.330;7.312;2022-10-16T02:12:13;3.25;;;1.13;;
15482;SDS011;7843;50.330;7.312;2022-10-16T02:14:45;1.98;;;1.20;;
15482;SDS011;7843;50.330;7.312;2022-10-16T02:17:13;1.40;;;1.00;;
15482;SDS011;7843;50.330;7.312;2022-10-16T02:19:41;2.33;;;1.13;;
15482;SDS011;7843;50.330;7.312;2022-10-16T02:22:15;1.60;;;1.20;;
15482;SDS011;7843;50.330;7.312;2022-10-16T02:25:10;3.08;;;1.40;;
15482;SDS011;7843;50.330;7.312;2022-10-16T02:30:48;3.60;;;1.55;;
15482;SDS011;7843;50.330;7.312;2022-10-16T02:33:16;1.83;;;1.08;;
15482;SDS011;7843;50.330;7.312;2022-10-16T02:35:46;2.45;;;1.20;;
15482;SDS011;7843;50.330;7.312;2022-10-16T02:38:15;1.37;;;1.10;;
15482;SDS011;7843;50.330;7.312;2022-10-16T02:40:43;1.42;;;0.82;;
15482;SDS011;7843;50.330;7.312;2022-10-16T02:43:10;4.55;;;1.25;;
15482;SDS011;7843;50.330;7.312;2022-10-16T02:45:37;2.40;;;1.40;;
15482;SDS011;7843;50.330;7.312;2022-10-16T02:48:04;3.28;;;1.50;;
15482;SDS011;7843;50.330;7.312;2022-10-16T02:50:31;2.05;;;1.13;;
15482;SDS011;7843;50.330;7.312;2022-10-16T02:52:58;2.17;;;1.17;;
15482;SDS011;7843;50.330;7.312;2022-10-16T02:55:25;3.53;;;1.15;;
15482;SDS011;7843;50.330;7.312;2022-10-16T02:57:54;3.40;;;1.52;;
15482;SDS011;7843;50.330;7.312;2022-10-16T03:00:20;3.03;;;1.50;;
15482;SDS011;7843;50.330;7.312;2022-10-16T03:02:47;3.43;;;0.90;;
15482;SDS011;7843;50.330;7.312;2022-10-16T03:05:14;2.03;;;1.35;;
15482;SDS011;7843;50.330;7.312;2022-10-16T03:07:41;2.08;;;1.17;;
15482;SDS011;7843;50.330;7.312;2022-10-16T03:10:08;2.20;;;1.10;;
15482;SDS011;7843;50.330;7.312;2022-10-16T03:12:35;1.50;;;1.08;;
15482;SDS011;7843;50.330;7.312;2022-10-16T03:15:02;2.45;;;1.40;;
15482;SDS011;7843;50.330;7.312;2022-10-16T03:17:29;1.73;;;1.13;;
15482;SDS011;7843;50.330;7.312;2022-10-16T03:19:57;2.40;;;1.20;;
15482;SDS011;7843;50.330;7.312;2022-10-16T03:22:24;4.40;;;1.10;;
15482;SDS011;7843;50.330;7.312;2022-10-16T03:24:51;1.67;;;0.93;;
15482;SDS011;7843;50.330;7.312;2022-10-16T03:27:18;5.20;;;1.30;;
15482;SDS011;7843;50.330;7.312;2022-10-16T03:29:44;7.50;;;1.38;;
15482;SDS011;7843;50.330;7.312;2022-10-16T03:32:11;2.70;;;1.05;;
15482;SDS011;7843;50.330;7.312;2022-10-16T03:34:38;2.00;;;1.27;;
15482;SDS011;7843;50.330;7.312;2022-10-16T03:37:04;2.35;;;1.33;;
15482;SDS011;7843;50.330;7.312;2022-10-16T03:39:31;1.27;;;1.17;;
15482;SDS011;7843;50.330;7.312;2022-10-16T03:41:58;5.20;;;1.60;;
15482;SDS011;7843;50.330;7.312;2022-10-16T03:44:24;5.85;;;1.67;;
15482;SDS011;7843;50.330;7.312;2022-10-16T03:46:51;3.03;;;1.80;;
15482;SDS011;7843;50.330;7.312;2022-10-16T03:49:18;5.57;;;2.15;;
15482;SDS011;7843;50.330;7.312;2022-10-16T03:51:45;2.83;;;1.40;;
15482;SDS011;7843;50.330;7.312;2022-10-16T03:54:12;2.53;;;1.52;;
15482;SDS011;7843;50.330;7.312;2022-10-16T03:56:39;3.20;;;1.80;;
15482;SDS011;7843;50.330;7.312;2022-10-16T03:59:05;2.40;;;1.50;;
15482;SDS011;7843;50.330;7.312;2022-10-16T04:01:32;2.63;;;1.50;;
15482;SDS011;7843;50.330;7.312;2022-10-16T04:03:59;4.80;;;1.98;;
15482;SDS011;7843;50.330;7.312;2022-10-16T04:06:25;1.42;;;1.17;;
15482;SDS011;7843;50.330;7.312;2022-10-16T04:08:52;2.33;;;1.30;;
15482;SDS011;7843;50.330;7.312;2022-10-16T04:11:19;3.85;;;1.33;;
15482;SDS011;7843;50.330;7.312;2022-10-16T04:13:45;5.20;;;1.35;;
15482;SDS011;7843;50.330;7.312;2022-10-16T04:16:12;5.75;;;1.15;;
15482;SDS011;7843;50.330;7.312;2022-10-16T04:18:39;1.25;;;0.70;;
15482;SDS011;7843;50.330;7.312;2022-10-16T04:21:06;1.10;;;0.80;;
15482;SDS011;7843;50.330;7.312;2022-10-16T04:23:33;2.42;;;0.90;;
15482;SDS011;7843;50.330;7.312;2022-10-16T04:26:00;1.35;;;1.10;;
15482;SDS011;7843;50.330;7.312;2022-10-16T04:28:27;1.00;;;0.88;;
15482;SDS011;7843;50.330;7.312;2022-10-16T04:30:54;0.85;;;0.63;;
15482;SDS011;7843;50.330;7.312;2022-10-16T04:33:21;0.82;;;0.60;;
15482;SDS011;7843;50.330;7.312;2022-10-16T04:35:48;1.60;;;0.60;;
15482;SDS011;7843;50.330;7.312;2022-10-16T04:38:15;1.17;;;0.70;;
15482;SDS011;7843;50.330;7.312;2022-10-16T04:40:42;1.13;;;0.50;;
15482;SDS011;7843;50.330;7.312;2022-10-16T04:43:08;0.70;;;0.50;;
15482;SDS011;7843;50.330;7.312;2022-10-16T04:45:35;2.40;;;0.52;;
15482;SDS011;7843;50.330;7.312;2022-10-16T04:48:02;2.03;;;0.60;;
15482;SDS011;7843;50.330;7.312;2022-10-16T04:50:29;6.47;;;0.80;;
15482;SDS011;7843;50.330;7.312;2022-10-16T04:52:56;0.50;;;0.50;;
15482;SDS011;7843;50.330;7.312;2022-10-16T04:55:22;1.40;;;0.60;;
15482;SDS011;7843;50.330;7.312;2022-10-16T04:57:49;0.50;;;0.40;;
15482;SDS011;7843;50.330;7.312;2022-10-16T05:00:16;2.90;;;0.67;;
15482;SDS011;7843;50.330;7.312;2022-10-16T05:02:42;5.20;;;0.52;;
15482;SDS011;7843;50.330;7.312;2022-10-16T05:05:09;1.13;;;0.60;;
15482;SDS011;7843;50.330;7.312;2022-10-16T05:07:36;0.68;;;0.40;;
15482;SDS011;7843;50.330;7.312;2022-10-16T05:10:03;1.10;;;0.43;;
15482;SDS011;7843;50.330;7.312;2022-10-16T05:12:30;1.00;;;0.50;;
15482;SDS011;7843;50.330;7.312;2022-10-16T05:14:56;3.05;;;0.50;;
15482;SDS011;7843;50.330;7.312;2022-10-16T05:17:25;2.57;;;0.53;;
15482;SDS011;7843;50.330;7.312;2022-10-16T05:19:52;4.85;;;0.60;;
15482;SDS011;7843;50.330;7.312;2022-10-16T05:22:18;1.08;;;0.50;;
15482;SDS011;7843;50.330;7.312;2022-10-16T05:24:45;0.80;;;0.80;;
15482;SDS011;7843;50.330;7.312;2022-10-16T05:27:12;2.10;;;0.70;;
15482;SDS011;7843;50.330;7.312;2022-10-16T05:29:48;0.70;;;0.47;;
15482;SDS011;7843;50.330;7.312;2022-10-16T05:32:16;0.50;;;0.38;;
15482;SDS011;7843;50.330;7.312;2022-10-16T05:34:43;1.20;;;0.50;;
15482;SDS011;7843;50.330;7.312;2022-10-16T05:37:11;2.53;;;0.80;;
15482;SDS011;7843;50.330;7.312;2022-10-16T05:39:38;1.23;;;0.52;;
15482;SDS011;7843;50.330;7.312;2022-10-16T05:42:05;2.15;;;0.50;;
15482;SDS011;7843;50.330;7.312;2022-10-16T05:44:32;0.60;;;0.30;;
15482;SDS011;7843;50.330;7.312;2022-10-16T05:47:04;0.70;;;0.50;;
15482;SDS011;7843;50.330;7.312;2022-10-16T05:49:31;2.80;;;0.50;;
15482;SDS011;7843;50.330;7.312;2022-10-16T05:51:58;1.08;;;0.40;;
15482;SDS011;7843;50.330;7.312;2022-10-16T05:54:25;1.00;;;0.63;;
15482;SDS011;7843;50.330;7.312;2022-10-16T05:56:51;0.65;;;0.52;;
15482;SDS011;7843;50.330;7.312;2022-10-16T05:59:18;0.80;;;0.43;;
15482;SDS011;7843;50.330;7.312;2022-10-16T06:01:45;1.00;;;0.40;;
15482;SDS011;7843;50.330;7.312;2022-10-16T06:04:11;0.47;;;0.40;;
15482;SDS011;7843;50.330;7.312;2022-10-16T06:06:39;0.88;;;0.55;;
15482;SDS011;7843;50.330;7.312;2022-10-16T06:09:06;3.17;;;0.60;;
15482;SDS011;7843;50.330;7.312;2022-10-16T06:11:32;0.90;;;0.60;;
15482;SDS011;7843;50.330;7.312;2022-10-16T06:14:00;0.52;;;0.52;;
15482;SDS011;7843;50.330;7.312;2022-10-16T06:16:33;0.60;;;0.60;;
15482;SDS011;7843;50.330;7.312;2022-10-16T06:19:00;1.80;;;0.90;;
15482;SDS011;7843;50.330;7.312;2022-10-16T06:21:28;1.08;;;0.50;;
15482;SDS011;7843;50.330;7.312;2022-10-16T06:23:55;0.80;;;0.50;;
15482;SDS011;7843;50.330;7.312;2022-10-16T06:26:24;1.40;;;0.53;;
15482;SDS011;7843;50.330;7.312;2022-10-16T06:28:56;0.80;;;0.60;;
15482;SDS011;7843;50.330;7.312;2022-10-16T06:31:24;2.92;;;0.60;;
15482;SDS011;7843;50.330;7.312;2022-10-16T06:33:57;2.40;;;0.50;;
15482;SDS011;7843;50.330;7.312;2022-10-16T06:36:24;0.57;;;0.50;;
15482;SDS011;7843;50.330;7.312;2022-10-16T06:38:51;0.70;;;0.47;;
15482;SDS011;7843;50.330;7.312;2022-10-16T06:41:19;1.33;;;0.50;;
15482;SDS011;7843;50.330;7.312;2022-10-16T06:43:47;2.13;;;0.30;;
15482;SDS011;7843;50.330;7.312;2022-10-16T06:46:15;0.75;;;0.40;;
15482;SDS011;7843;50.330;7.312;2022-10-16T06:48:44;0.38;;;0.38;;
15482;SDS011;7843;50.330;7.312;2022-10-16T06:51:12;0.85;;;0.47;;
15482;SDS011;7843;50.330;7.312;2022-10-16T06:53:42;0.88;;;0.70;;
15482;SDS011;7843;50.330;7.312;2022-10-16T06:56:23;0.98;;;0.43;;
15482;SDS011;7843;50.330;7.312;2022-10-16T06:58:52;0.98;;;0.40;;
15482;SDS011;7843;50.330;7.312;2022-10-16T07:01:20;1.88;;;0.65;;
15482;SDS011;7843;50.330;7.312;2022-10-16T07:03:48;0.98;;;0.68;;
15482;SDS011;7843;50.330;7.312;2022-10-16T07:06:16;0.77;;;0.47;;
15482;SDS011;7843;50.330;7.312;2022-10-16T07:08:45;0.65;;;0.45;;
15482;SDS011;7843;50.330;7.312;2022-10-16T07:11:14;0.80;;;0.50;;
15482;SDS011;7843;50.330;7.312;2022-10-16T07:13:45;1.00;;;0.80;;
15482;SDS011;7843;50.330;7.312;2022-10-16T07:16:14;0.90;;;0.52;;
15482;SDS011;7843;50.330;7.312;2022-10-16T07:18:42;2.30;;;0.50;;
15482;SDS011;7843;50.330;7.312;2022-10-16T07:21:15;0.57;;;0.47;;
15482;SDS011;7843;50.330;7.312;2022-10-16T07:23:45;1.67;;;0.60;;
15482;SDS011;7843;50.330;7.312;2022-10-16T07:26:19;0.80;;;0.52;;
15482;SDS011;7843;50.330;7.312;2022-10-16T07:28:46;1.48;;;1.23;;
15482;SDS011;7843;50.330;7.312;2022-10-16T07:31:13;2.70;;;1.02;;
15482;SDS011;7843;50.330;7.312;2022-10-16T07:33:41;1.10;;;0.53;;
15482;SDS011;7843;50.330;7.312;2022-10-16T07:36:11;0.55;;;0.47;;
15482;SDS011;7843;50.330;7.312;2022-10-16T07:38:41;1.50;;;0.50;;
15482;SDS011;7843;50.330;7.312;2022-10-16T07:41:09;0.98;;;0.60;;
15482;SDS011;7843;50.330;7.312;2022-10-16T07:43:38;2.63;;;0.77;;
15482;SDS011;7843;50.330;7.312;2022-10-16T07:46:05;6.78;;;0.80;;
15482;SDS011;7843;50.330;7.312;2022-10-16T07:48:33;0.45;;;0.45;;
15482;SDS011;7843;50.330;7.312;2022-10-16T07:51:01;0.77;;;0.50;;
15482;SDS011;7843;50.330;7.312;2022-10-16T07:53:30;2.83;;;0.60;;
15482;SDS011;7843;50.330;7.312;2022-10-16T07:56:01;2.20;;;0.70;;
15482;SDS011;7843;50.330;7.312;2022-10-16T07:58:29;3.20;;;0.70;;
15482;SDS011;7843;50.330;7.312;2022-10-16T08:00:57;0.93;;;0.70;;
15482;SDS011;7843;50.330;7.312;2022-10-16T08:03:25;3.72;;;0.80;;
15482;SDS011;7843;50.330;7.312;2022-10-16T08:05:52;1.55;;;0.90;;
15482;SDS011;7843;50.330;7.312;2022-10-16T08:08:18;3.50;;;1.10;;
15482;SDS011;7843;50.330;7.312;2022-10-16T08:10:45;2.92;;;1.40;;
15482;SDS011;7843;50.330;7.312;2022-10-16T08:13:12;1.70;;;1.20;;
15482;SDS011;7843;50.330;7.312;2022-10-16T08:15:41;1.65;;;1.00;;
15482;SDS011;7843;50.330;7.312;2022-10-16T08:18:12;1.20;;;0.70;;
15482;SDS011;7843;50.330;7.312;2022-10-16T08:20:41;1.50;;;0.70;;
15482;SDS011;7843;50.330;7.312;2022-10-16T08:23:11;2.67;;;1.10;;
15482;SDS011;7843;50.330;7.312;2022-10-16T08:25:40;1.02;;;0.90;;
15482;SDS011;7843;50.330;7.312;2022-10-16T08:28:07;2.28;;;1.30;;
15482;SDS011;7843;50.330;7.312;2022-10-16T08:30:36;1.15;;;0.85;;
15482;SDS011;7843;50.330;7.312;2022-10-16T08:33:03;0.70;;;0.70;;
15482;SDS011;7843;50.330;7.312;2022-10-16T08:35:30;1.20;;;0.70;;
15482;SDS011;7843;50.330;7.312;2022-10-16T08:37:56;2.00;;;0.60;;
15482;SDS011;7843;50.330;7.312;2022-10-16T08:40:27;1.85;;;0.90;;
15482;SDS011;7843;50.330;7.312;2022-10-16T08:51:07;1.67;;;0.80;;
15482;SDS011;7843;50.330;7.312;2022-10-16T08:53:38;1.27;;;0.93;;
15482;SDS011;7843;50.330;7.312;2022-10-16T08:56:15;0.88;;;0.60;;
15482;SDS011;7843;50.330;7.312;2022-10-16T08:58:43;1.77;;;0.60;;
15482;SDS011;7843;50.330;7.312;2022-10-16T09:01:17;1.33;;;0.60;;
15482;SDS011;7843;50.330;7.312;2022-10-16T09:09:43;0.57;;;0.45;;
15482;SDS011;7843;50.330;7.312;2022-10-16T09:12:21;1.70;;;0.60;;
15482;SDS011;7843;50.330;7.312;2022-10-16T09:15:11;0.50;;;0.45;;
15482;SDS011;7843;50.330;7.312;2022-10-16T09:23:23;0.32;;;0.30;;
15482;SDS011;7843;50.330;7.312;2022-10-16T09:25:53;0.70;;;0.40;;
15482;SDS011;7843;50.330;7.312;2022-10-16T09:28:21;0.60;;;0.40;;
15482;SDS011;7843;50.330;7.312;2022-10-16T09:30:48;0.80;;;0.52;;
15482;SDS011;7843;50.330;7.312;2022-10-16T09:33:17;2.50;;;0.63;;
15482;SDS011;7843;50.330;7.312;2022-10-16T09:35:49;1.52;;;0.40;;
15482;SDS011;7843;50.330;7.312;2022-10-16T09:38:23;1.30;;;0.40;;
15482;SDS011;7843;50.330;7.312;2022-10-16T09:40:55;1.50;;;0.68;;
15482;SDS011;7843;50.330;7.312;2022-10-16T09:46:07;0.32;;;0.20;;
15482;SDS011;7843;50.330;7.312;2022-10-16T09:48:48;0.90;;;0.30;;
15482;SDS011;7843;50.330;7.312;2022-10-16T09:51:18;0.88;;;0.50;;
15482;SDS011;7843;50.330;7.312;2022-10-16T09:53:54;0.80;;;0.60;;
15482;SDS011;7843;50.330;7.312;2022-10-16T09:56:29;1.55;;;0.70;;
15482;SDS011;7843;50.330;7.312;2022-10-16T09:59:10;1.17;;;0.47;;
15482;SDS011;7843;50.330;7.312;2022-10-16T10:01:40;1.80;;;0.30;;
15482;SDS011;7843;50.330;7.312;2022-10-16T10:04:17;0.68;;;0.50;;
15482;SDS011;7843;50.330;7.312;2022-10-16T10:06:52;0.73;;;0.40;;
15482;SDS011;7843;50.330;7.312;2022-10-16T10:09:24;0.82;;;0.50;;
15482;SDS011;7843;50.330;7.312;2022-10-16T10:11:56;2.10;;;0.50;;
15482;SDS011;7843;50.330;7.312;2022-10-16T10:17:01;0.32;;;0.30;;
15482;SDS011;7843;50.330;7.312;2022-10-16T10:19:41;0.75;;;0.40;;
15482;SDS011;7843;50.330;7.312;2022-10-16T10:22:17;0.95;;;0.30;;
15482;SDS011;7843;50.330;7.312;2022-10-16T10:24:58;1.33;;;0.30;;
15482;SDS011;7843;50.330;7.312;2022-10-16T10:27:38;0.52;;;0.20;;
15482;SDS011;7843;50.330;7.312;2022-10-16T10:30:27;1.73;;;0.30;;
15482;SDS011;7843;50.330;7.312;2022-10-16T10:33:28;0.50;;;0.30;;
15482;SDS011;7843;50.330;7.312;2022-10-16T10:44:05;0.57;;;0.40;;
15482;SDS011;7843;50.330;7.312;2022-10-16T10:46:35;0.70;;;0.35;;
15482;SDS011;7843;50.330;7.312;2022-10-16T11:00:54;1.80;;;0.30;;
15482;SDS011;7843;50.330;7.312;2022-10-16T11:06:25;0.20;;;0.20;;
15482;SDS011;7843;50.330;7.312;2022-10-16T11:11:34;0.60;;;0.40;;
15482;SDS011;7843;50.330;7.312;2022-10-16T11:14:11;1.00;;;0.60;;
15482;SDS011;7843;50.330;7.312;2022-10-16T11:16:45;0.85;;;0.20;;
15482;SDS011;7843;50.330;7.312;2022-10-16T11:21:59;1.58;;;0.30;;
15482;SDS011;7843;50.330;7.312;2022-10-16T11:24:35;0.30;;;0.20;;
15482;SDS011;7843;50.330;7.312;2022-10-16T11:27:40;0.70;;;0.35;;
15482;SDS011;7843;50.330;7.312;2022-10-16T11:30:25;0.63;;;0.27;;
15482;SDS011;7843;50.330;7.312;2022-10-16T11:38:58;0.55;;;0.30;;
15482;SDS011;7843;50.330;7.312;2022-10-16T11:44:46;1.05;;;0.40;;
15482;SDS011;7843;50.330;7.312;2022-10-16T11:50:45;0.25;;;0.20;;
15482;SDS011;7843;50.330;7.312;2022-10-16T11:53:28;0.45;;;0.30;;
15482;SDS011;7843;50.330;7.312;2022-10-16T11:55:59;1.38;;;0.40;;
15482;SDS011;7843;50.330;7.312;2022-10-16T11:58:35;0.30;;;0.20;;
15482;SDS011;7843;50.330;7.312;2022-10-16T12:01:14;0.52;;;0.30;;
15482;SDS011;7843;50.330;7.312;2022-10-16T12:04:03;1.70;;;0.38;;
15482;SDS011;7843;50.330;7.312;2022-10-16T12:07:24;0.40;;;0.30;;
15482;SDS011;7843;50.330;7.312;2022-10-16T12:09:45;1.30;;;0.20;;
15482;SDS011;7843;50.330;7.312;2022-10-16T12:12:27;1.10;;;0.20;;
15482;SDS011;7843;50.330;7.312;2022-10-16T12:17:55;0.52;;;0.20;;
15482;SDS011;7843;50.330;7.312;2022-10-16T12:20:29;1.45;;;0.40;;
15482;SDS011;7843;50.330;7.312;2022-10-16T12:28:02;0.60;;;0.20;;
15482;SDS011;7843;50.330;7.312;2022-10-16T12:30:51;0.95;;;0.35;;
15482;SDS011;7843;50.330;7.312;2022-10-16T12:33:24;0.30;;;0.20;;
15482;SDS011;7843;50.330;7.312;2022-10-16T12:35:59;0.88;;;0.30;;
15482;SDS011;7843;50.330;7.312;2022-10-16T12:38:31;2.20;;;0.20;;
15482;SDS011;7843;50.330;7.312;2022-10-16T12:41:12;1.43;;;0.30;;
15482;SDS011;7843;50.330;7.312;2022-10-16T12:43:49;1.00;;;0.20;;
15482;SDS011;7843;50.330;7.312;2022-10-16T12:48:43;2.40;;;0.17;;
15482;SDS011;7843;50.330;7.312;2022-10-16T12:54:04;0.40;;;0.20;;
15482;SDS011;7843;50.330;7.312;2022-10-16T13:10:39;0.28;;;0.20;;
15482;SDS011;7843;50.330;7.312;2022-10-16T13:21:38;0.60;;;0.40;;
15482;SDS011;7843;50.330;7.312;2022-10-16T13:30:02;1.40;;;0.32;;
15482;SDS011;7843;50.330;7.312;2022-10-16T13:32:44;0.55;;;0.20;;
15482;SDS011;7843;50.330;7.312;2022-10-16T13:35:20;0.65;;;0.32;;
15482;SDS011;7843;50.330;7.312;2022-10-16T13:38:03;0.30;;;0.22;;
15482;SDS011;7843;50.330;7.312;2022-10-16T13:40:29;1.45;;;0.30;;
15482;SDS011;7843;50.330;7.312;2022-10-16T13:42:56;0.20;;;0.15;;
15482;SDS011;7843;50.330;7.312;2022-10-16T13:45:26;1.10;;;0.30;;
15482;SDS011;7843;50.330;7.312;2022-10-16T13:48:06;1.25;;;0.43;;
15482;SDS011;7843;50.330;7.312;2022-10-16T13:50:38;1.15;;;0.20;;
15482;SDS011;7843;50.330;7.312;2022-10-16T13:53:06;5.38;;;1.48;;
15482;SDS011;7843;50.330;7.312;2022-10-16T13:55:38;3.00;;;1.30;;
15482;SDS011;7843;50.330;7.312;2022-10-16T13:58:10;0.50;;;0.40;;
15482;SDS011;7843;50.330;7.312;2022-10-16T14:00:39;0.40;;;0.30;;
15482;SDS011;7843;50.330;7.312;2022-10-16T14:03:18;1.10;;;0.20;;
15482;SDS011;7843;50.330;7.312;2022-10-16T14:05:50;0.40;;;0.30;;
15482;SDS011;7843;50.330;7.312;2022-10-16T14:08:23;0.60;;;0.40;;
15482;SDS011;7843;50.330;7.312;2022-10-16T14:10:56;0.60;;;0.40;;
15482;SDS011;7843;50.330;7.312;2022-10-16T14:13:30;0.40;;;0.38;;
15482;SDS011;7843;50.330;7.312;2022-10-16T14:16:10;0.88;;;0.52;;
15482;SDS011;7843;50.330;7.312;2022-10-16T14:18:50;1.87;;;0.43;;
15482;SDS011;7843;50.330;7.312;2022-10-16T14:21:25;1.00;;;0.43;;
15482;SDS011;7843;50.330;7.312;2022-10-16T14:23:53;2.00;;;0.43;;
15482;SDS011;7843;50.330;7.312;2022-10-16T14:26:22;0.60;;;0.30;;
15482;SDS011;7843;50.330;7.312;2022-10-16T14:29:01;5.10;;;1.25;;
15482;SDS011;7843;50.330;7.312;2022-10-16T14:31:36;3.60;;;0.50;;
15482;SDS011;7843;50.330;7.312;2022-10-16T14:34:03;2.28;;;0.50;;
15482;SDS011;7843;50.330;7.312;2022-10-16T14:36:30;1.08;;;0.60;;
15482;SDS011;7843;50.330;7.312;2022-10-16T14:39:02;1.17;;;0.60;;
15482;SDS011;7843;50.330;7.312;2022-10-16T14:41:46;0.70;;;0.60;;
15482;SDS011;7843;50.330;7.312;2022-10-16T14:44:14;0.60;;;0.40;;
15482;SDS011;7843;50.330;7.312;2022-10-16T14:46:43;1.40;;;0.45;;
15482;SDS011;7843;50.330;7.312;2022-10-16T14:51:38;2.05;;;0.50;;
15482;SDS011;7843;50.330;7.312;2022-10-16T14:54:14;0.52;;;0.38;;
15482;SDS011;7843;50.330;7.312;2022-10-16T14:56:52;1.27;;;0.57;;
15482;SDS011;7843;50.330;7.312;2022-10-16T15:01:59;1.00;;;0.80;;
15482;SDS011;7843;50.330;7.312;2022-10-16T15:04:35;0.90;;;0.45;;
15482;SDS011;7843;50.330;7.312;2022-10-16T15:07:02;2.45;;;0.45;;
15482;SDS011;7843;50.330;7.312;2022-10-16T15:09:28;2.05;;;0.45;;
15482;SDS011;7843;50.330;7.312;2022-10-16T15:11:55;4.32;;;0.60;;
15482;SDS011;7843;50.330;7.312;2022-10-16T15:14:22;2.85;;;0.60;;
15482;SDS011;7843;50.330;7.312;2022-10-16T15:16:48;0.53;;;0.50;;
15482;SDS011;7843;50.330;7.312;2022-10-16T15:19:15;1.27;;;0.60;;
15482;SDS011;7843;50.330;7.312;2022-10-16T15:21:41;2.08;;;0.80;;
15482;SDS011;7843;50.330;7.312;2022-10-16T15:24:11;2.97;;;1.33;;
15482;SDS011;7843;50.330;7.312;2022-10-16T15:26:39;2.78;;;1.10;;
15482;SDS011;7843;50.330;7.312;2022-10-16T15:29:07;5.35;;;1.10;;
15482;SDS011;7843;50.330;7.312;2022-10-16T15:31:34;2.67;;;0.60;;
15482;SDS011;7843;50.330;7.312;2022-10-16T15:34:01;6.20;;;2.30;;
15482;SDS011;7843;50.330;7.312;2022-10-16T15:36:31;4.57;;;2.38;;
15482;SDS011;7843;50.330;7.312;2022-10-16T15:39:03;1.53;;;1.10;;
15482;SDS011;7843;50.330;7.312;2022-10-16T15:41:31;3.58;;;2.05;;
15482;SDS011;7843;50.330;7.312;2022-10-16T15:43:58;5.85;;;2.47;;
15482;SDS011;7843;50.330;7.312;2022-10-16T15:46:24;3.42;;;1.60;;
15482;SDS011;7843;50.330;7.312;2022-10-16T15:48:51;2.00;;;1.45;;
15482;SDS011;7843;50.330;7.312;2022-10-16T15:51:23;2.55;;;1.23;;
15482;SDS011;7843;50.330;7.312;2022-10-16T15:53:50;1.60;;;1.10;;
15482;SDS011;7843;50.330;7.312;2022-10-16T15:56:18;1.92;;;1.10;;
15482;SDS011;7843;50.330;7.312;2022-10-16T15:58:45;1.27;;;0.90;;
15482;SDS011;7843;50.330;7.312;2022-10-16T16:01:12;1.10;;;0.73;;
15482;SDS011;7843;50.330;7.312;2022-10-16T16:03:39;1.92;;;0.85;;
15482;SDS011;7843;50.330;7.312;2022-10-16T16:06:09;1.47;;;0.77;;
15482;SDS011;7843;50.330;7.312;2022-10-16T16:08:38;1.20;;;1.10;;
15482;SDS011;7843;50.330;7.312;2022-10-16T16:11:09;1.13;;;0.80;;
15482;SDS011;7843;50.330;7.312;2022-10-16T16:13:37;1.70;;;0.70;;
15482;SDS011;7843;50.330;7.312;2022-10-16T16:16:08;2.90;;;0.90;;
15482;SDS011;7843;50.330;7.312;2022-10-16T16:18:37;1.40;;;1.00;;
15482;SDS011;7843;50.330;7.312;2022-10-16T16:21:04;2.10;;;0.70;;
15482;SDS011;7843;50.330;7.312;2022-10-16T16:23:32;0.80;;;0.80;;
15482;SDS011;7843;50.330;7.312;2022-10-16T16:26:05;1.80;;;0.90;;
15482;SDS011;7843;50.330;7.312;2022-10-16T16:28:40;1.80;;;0.77;;
15482;SDS011;7843;50.330;7.312;2022-10-16T16:31:08;0.90;;;0.63;;
15482;SDS011;7843;50.330;7.312;2022-10-16T16:33:35;2.22;;;1.30;;
15482;SDS011;7843;50.330;7.312;2022-10-16T16:36:03;3.30;;;1.20;;
15482;SDS011;7843;50.330;7.312;2022-10-16T16:38:33;1.58;;;1.17;;
15482;SDS011;7843;50.330;7.312;2022-10-16T16:41:10;1.92;;;1.40;;
15482;SDS011;7843;50.330;7.312;2022-10-16T16:44:00;2.90;;;1.33;;
15482;SDS011;7843;50.330;7.312;2022-10-16T16:46:32;3.25;;;1.67;;
15482;SDS011;7843;50.330;7.312;2022-10-16T16:48:59;3.07;;;1.90;;
15482;SDS011;7843;50.330;7.312;2022-10-16T16:51:27;3.63;;;1.88;;
15482;SDS011;7843;50.330;7.312;2022-10-16T16:53:53;2.40;;;1.80;;
15482;SDS011;7843;50.330;7.312;2022-10-16T16:56:21;6.07;;;1.98;;
15482;SDS011;7843;50.330;7.312;2022-10-16T16:58:50;3.78;;;1.48;;
15482;SDS011;7843;50.330;7.312;2022-10-16T17:01:18;3.80;;;1.95;;
15482;SDS011;7843;50.330;7.312;2022-10-16T17:03:46;4.47;;;2.35;;
15482;SDS011;7843;50.330;7.312;2022-10-16T17:06:15;4.72;;;2.00;;
15482;SDS011;7843;50.330;7.312;2022-10-16T17:08:43;3.40;;;1.92;;
15482;SDS011;7843;50.330;7.312;2022-10-16T17:11:14;2.70;;;1.60;;
15482;SDS011;7843;50.330;7.312;2022-10-16T17:13:42;2.58;;;1.65;;
15482;SDS011;7843;50.330;7.312;2022-10-16T17:16:09;2.00;;;1.42;;
15482;SDS011;7843;50.330;7.312;2022-10-16T17:18:36;1.92;;;1.30;;
15482;SDS011;7843;50.330;7.312;2022-10-16T17:21:04;2.05;;;1.15;;
15482;SDS011;7843;50.330;7.312;2022-10-16T17:23:33;1.23;;;0.80;;